Time;durP1;ratioP1;P1;durP2;ratioP2;P2;SDS_P1;SDS_P2;PMS_P1;PMS_P2;Temp;Humidity;BMP_temperature;BMP_pressure;BME280_temperature;BME280_humidity;BME280_pressure;Samples;Min_cycle;Max_cycle;Signal;HPM_P1;HPM_P2
2022/11/12 00:00:02;;;;;;;31.58;24.10;;;12.50;99.90;;;12.80;83.96;102968.03;5117296;28;20047;-65
2022/11/12 00:02:51;;;;;;;27.02;22.92;;;12.50;99.90;;;12.73;84.40;102975.00;5117388;28;20046;-65
2022/11/12 00:05:38;;;;;;;30.92;24.02;;;12.50;99.90;;;12.31;84.72;102884.72;5117217;28;20148;-65
2022/11/12 00:08:25;;;;;;;28.00;22.08;;;12.50;99.90;;;12.75;84.65;102973.28;5116863;28;20050;-65
2022/11/12 00:11:12;;;;;;;28.35;21.95;;;12.50;99.90;;;12.73;85.47;102968.78;5116841;28;20053;-65
2022/11/12 00:13:59;;;;;;;31.83;25.45;;;12.50;99.90;;;12.25;84.97;102881.06;5117058;28;20516;-65
2022/11/12 00:16:46;;;;;;;34.83;27.45;;;12.50;99.90;;;12.68;85.30;102955.41;5117105;28;20047;-65
2022/11/12 00:19:34;;;;;;;40.92;29.15;;;12.60;99.90;;;12.90;85.44;102973.56;5116650;28;20058;-65
2022/11/12 00:22:21;;;;;;;33.85;26.95;;;12.60;99.90;;;12.85;85.42;102969.94;5116949;28;20185;-65
2022/11/12 00:25:09;;;;;;;34.65;27.25;;;12.60;99.90;;;12.96;85.34;102979.00;5116688;28;20124;-64
2022/11/12 00:28:02;;;;;;;36.53;28.58;;;12.60;99.90;;;13.02;85.28;102980.88;5116974;28;20059;-65
2022/11/12 00:30:49;;;;;;;41.50;33.40;;;12.70;99.90;;;13.06;85.06;102986.34;5116768;28;20506;-65
2022/11/12 00:33:40;;;;;;;42.13;33.83;;;12.70;99.90;;;13.07;85.17;102988.09;5116687;28;20088;-65
2022/11/12 00:36:29;;;;;;;42.03;34.45;;;12.80;99.90;;;13.06;84.93;102986.34;5116572;28;20062;-65
2022/11/12 00:39:16;;;;;;;42.15;35.78;;;12.80;99.90;;;13.08;85.11;102987.25;5116350;28;20562;-65
2022/11/12 00:42:03;;;;;;;42.13;34.33;;;12.80;99.90;;;13.06;84.88;102983.69;5116127;28;20093;-65
2022/11/12 00:44:50;;;;;;;42.85;34.25;;;12.80;99.90;;;12.90;84.91;102948.75;5116429;28;20061;-65
2022/11/12 00:47:37;;;;;;;45.97;35.45;;;12.80;99.90;;;13.14;84.92;102983.81;5116375;28;20078;-65
2022/11/12 00:50:24;;;;;;;45.13;35.58;;;12.80;99.90;;;13.09;85.21;102989.03;5116245;28;20409;-64
2022/11/12 00:53:12;;;;;;;42.05;35.70;;;12.80;99.90;;;13.07;85.52;102984.53;5116369;28;20063;-65
2022/11/12 00:56:04;;;;;;;44.55;35.80;;;12.80;99.90;;;13.02;85.00;102979.13;5115927;28;20054;-64
2022/11/12 00:58:51;;;;;;;44.08;36.25;;;12.70;99.90;;;13.06;85.21;102983.69;5115977;28;20054;-65
2022/11/12 01:01:39;;;;;;;45.65;36.03;;;12.70;99.90;;;13.08;85.05;102979.28;5115817;28;20117;-65
2022/11/12 01:04:26;;;;;;;42.40;35.47;;;12.70;99.90;;;13.09;85.12;102986.38;5115791;28;20054;-65
2022/11/12 01:07:14;;;;;;;42.38;35.50;;;12.80;99.90;;;13.09;85.13;102980.16;5115286;28;20553;-64
2022/11/12 01:10:03;;;;;;;45.30;36.90;;;12.80;99.90;;;12.09;84.98;102812.63;5115626;28;20527;-65
2022/11/12 01:12:50;;;;;;;42.72;35.50;;;12.70;99.90;;;13.08;85.15;102983.69;5115654;28;20054;-64
2022/11/12 01:15:41;;;;;;;44.80;35.78;;;12.70;99.90;;;13.08;85.02;102976.63;5115505;28;20058;-65
2022/11/12 01:18:28;;;;;;;41.30;34.65;;;12.80;99.90;;;13.07;85.17;102980.13;5115627;28;20046;-65
2022/11/12 01:21:15;;;;;;;42.90;35.00;;;12.70;99.90;;;13.06;84.96;102980.13;5115444;28;20511;-64
2022/11/12 01:24:02;;;;;;;44.80;36.47;;;12.70;99.90;;;13.06;84.91;102985.44;5115828;28;20924;-64
2022/11/12 01:26:54;;;;;;;43.25;35.28;;;12.70;99.90;;;12.87;85.21;102959.34;5115529;28;20054;-64
2022/11/12 01:29:40;;;;;;;47.28;36.05;;;12.70;99.90;;;13.04;85.29;102987.16;5115524;28;20066;-65
2022/11/12 01:32:27;;;;;;;42.65;35.30;;;12.70;99.90;;;12.99;85.39;102975.53;5115202;28;20062;-64
2022/11/12 01:35:14;;;;;;;45.05;36.47;;;12.70;99.90;;;12.89;85.16;102955.81;5115233;28;20050;-65
2022/11/12 01:38:01;;;;;;;46.92;35.58;;;12.70;99.90;;;12.99;85.43;102984.38;5115453;28;20066;-64
2022/11/12 01:40:48;;;;;;;41.67;33.60;;;12.70;99.90;;;13.01;85.52;102982.63;5115167;28;20115;-65
2022/11/12 01:43:37;;;;;;;47.20;35.08;;;12.70;99.90;;;13.06;85.64;102994.31;5115295;28;20058;-65
2022/11/12 01:46:30;;;;;;;42.42;35.13;;;12.70;99.90;;;13.02;85.92;102997.72;5114926;28;20051;-64
2022/11/12 01:49:22;;;;;;;46.45;36.83;;;12.70;99.90;;;12.99;85.96;102984.38;5115100;28;20054;-65
2022/11/12 01:52:17;;;;;;;53.08;36.28;;;12.70;99.90;;;13.02;86.21;102978.22;5114851;28;20123;-65
2022/11/12 01:55:12;;;;;;;43.45;34.50;;;12.70;99.90;;;12.91;85.82;102962.06;5114691;28;20053;-64
2022/11/12 01:58:11;;;;;;;49.25;35.58;;;12.70;99.90;;;12.99;86.13;102973.75;5114917;28;20460;-64
2022/11/12 02:01:00;;;;;;;45.30;34.95;;;12.70;99.90;;;12.43;86.26;102905.31;5114711;28;20059;-65
2022/11/12 02:03:49;;;;;;;44.00;35.67;;;12.70;99.90;;;13.01;86.10;102968.44;5114956;28;20046;-65
2022/11/12 02:06:37;;;;;;;41.15;33.75;;;12.70;99.90;;;12.81;86.14;102986.69;5114925;28;20121;-65
2022/11/12 02:09:25;;;;;;;43.70;34.72;;;12.70;99.90;;;12.87;86.06;102927.47;5114731;28;20063;-65
2022/11/12 02:13:56;;;;;;;57.30;42.38;;;12.80;99.90;;;12.82;86.16;102924.72;5114716;28;20089;-65
2022/11/12 02:15:18;;;;;;;60.28;42.50;;;12.70;99.90;;;13.08;86.21;102958.03;5114340;28;20043;-65
2022/11/12 02:18:08;;;;;;;43.20;33.90;;;12.80;99.90;;;12.83;86.77;102949.50;5113817;28;20066;-64
2022/11/12 02:20:58;;;;;;;42.08;32.45;;;12.60;99.90;;;12.88;86.97;102953.13;5114725;28;20051;-64
2022/11/12 02:23:46;;;;;;;43.15;33.70;;;12.60;99.90;;;12.56;87.11;102894.09;5114405;28;20060;-64
2022/11/12 02:26:35;;;;;;;50.60;37.80;;;12.60;99.90;;;12.95;87.24;102947.97;5114586;28;20104;-65
2022/11/12 02:29:23;;;;;;;44.10;34.80;;;12.70;99.90;;;12.75;86.95;102920.16;5114178;28;20070;-64
2022/11/12 02:32:09;;;;;;;60.70;41.88;;;12.70;99.90;;;12.87;87.33;102957.59;5114310;28;20504;-65
2022/11/12 02:34:56;;;;;;;72.28;50.55;;;12.60;99.90;;;12.56;87.92;102928.63;5113874;28;20059;-65
2022/11/12 02:37:43;;;;;;;76.40;51.88;;;12.50;99.90;;;12.60;88.12;102930.47;5114027;28;20132;-64
2022/11/12 02:40:32;;;;;;;75.03;51.80;;;12.40;99.90;;;12.73;88.29;102955.50;5113840;28;20059;-65
2022/11/12 02:43:18;;;;;;;73.75;46.85;;;12.40;99.90;;;12.55;88.44;102943.66;5113934;28;20062;-65
2022/11/12 02:46:05;;;;;;;73.68;49.80;;;12.40;99.90;;;12.41;88.97;102923.88;5113832;28;20054;-65
2022/11/12 02:48:52;;;;;;;78.22;50.25;;;12.30;99.90;;;12.55;89.20;102946.31;5113873;28;20050;-65
2022/11/12 02:51:39;;;;;;;76.85;52.47;;;12.30;99.90;;;12.45;89.44;102935.44;5113884;28;20066;-64
2022/11/12 02:54:26;;;;;;;82.72;53.70;;;12.20;99.90;;;10.64;89.29;102671.53;5113654;28;20135;-65
2022/11/12 02:57:14;;;;;;;86.05;57.13;;;12.20;99.90;;;12.48;89.89;102935.53;5113624;28;20050;-64
2022/11/12 03:00:05;;;;;;;83.85;55.20;;;12.20;99.90;;;12.52;89.92;102937.38;5113548;28;20109;-64
2022/11/12 03:02:58;;;;;;;81.05;54.58;;;12.30;99.90;;;12.43;89.74;102915.94;5113520;28;20050;-64
2022/11/12 03:05:53;;;;;;;82.75;54.08;;;12.30;99.90;;;12.54;89.90;102941.84;5113689;28;20515;-65
2022/11/12 03:08:40;;;;;;;80.20;53.10;;;12.30;99.90;;;12.51;89.90;102959.47;5113677;28;20116;-65
2022/11/12 03:11:27;;;;;;;73.50;51.92;;;12.30;99.90;;;12.60;89.87;102949.06;5113352;28;20054;-65
2022/11/12 03:14:16;;;;;;;72.75;50.38;;;12.30;99.90;;;12.62;89.97;102965.88;5113263;28;20054;-64
2022/11/12 03:17:02;;;;;;;77.00;50.40;;;12.40;99.90;;;12.59;89.65;102945.50;5113400;28;20054;-64
2022/11/12 03:19:49;;;;;;;72.90;49.97;;;12.30;99.90;;;12.58;90.04;102962.28;5113188;28;20046;-65
2022/11/12 03:22:36;;;;;;;70.75;46.75;;;12.30;99.90;;;12.59;90.08;102944.59;5113183;28;20051;-65
2022/11/12 03:25:23;;;;;;;75.38;47.63;;;12.30;99.90;;;12.51;89.93;102940.88;5113194;28;20058;-64
2022/11/12 03:28:13;;;;;;;68.00;45.60;;;12.30;99.90;;;12.26;90.69;102938.56;5113207;28;20062;-64
2022/11/12 03:31:02;;;;;;;74.50;48.60;;;12.10;99.90;;;11.89;91.41;102861.69;5112922;28;20063;-65
2022/11/12 03:33:49;;;;;;;70.38;44.97;;;12.10;99.90;;;12.21;91.48;102941.16;5112965;28;20296;-64
2022/11/12 03:36:36;;;;;;;66.00;44.60;;;12.00;99.90;;;12.20;92.14;102939.34;5113158;28;20058;-64
2022/11/12 03:39:23;;;;;;;65.32;43.45;;;12.00;99.90;;;11.57;92.32;102827.38;5112936;28;20511;-65
2022/11/12 03:42:10;;;;;;;70.35;44.30;;;12.00;99.90;;;12.27;92.29;102943.03;5113072;28;20081;-65
2022/11/12 03:44:57;;;;;;;70.28;45.60;;;12.00;99.90;;;12.30;92.38;102943.09;5112971;28;20130;-65
2022/11/12 03:47:47;;;;;;;67.43;42.88;;;12.00;99.90;;;12.06;92.36;102926.66;5112888;28;20050;-64
2022/11/12 03:50:35;;;;;;;65.15;42.65;;;12.10;99.90;;;11.41;93.38;102883.53;5113223;28;20059;-64
2022/11/12 03:53:22;;;;;;;65.05;41.42;;;11.80;99.90;;;11.46;94.70;102945.47;5112944;28;20085;-64
2022/11/12 03:56:09;;;;;;;54.58;37.97;;;11.40;99.90;;;11.21;95.92;102945.69;5112868;28;20054;-64
2022/11/12 03:58:56;;;;;;;52.13;36.45;;;11.10;99.90;;;11.00;96.65;102939.84;5112882;28;20059;-64
2022/11/12 04:01:43;;;;;;;54.03;37.85;;;10.90;99.90;;;11.01;97.54;102941.66;5112896;28;20050;-64
2022/11/12 04:10:37;;;;;;;59.28;31.77;;;10.00;99.90;;;9.96;100.00;102942.94;5112779;28;20128;-65
2022/11/12 04:13:30;;;;;;;44.35;32.35;;;9.80;99.90;;;10.08;100.00;102942.41;5113006;28;20128;-65
2022/11/12 04:22:30;;;;;;;61.22;30.90;;;9.90;99.90;;;9.73;100.00;102920.16;5112676;28;20412;-66
2022/11/12 04:28:20;;;;;;;43.08;31.52;;;9.60;99.90;;;9.91;100.00;102943.63;5074685;28;20070;-65
2022/11/12 04:31:06;;;;;;;45.08;31.05;;;9.60;99.90;;;10.00;100.00;102931.59;5112577;28;20054;-65
2022/11/12 04:33:53;;;;;;;115.90;31.42;;;9.70;99.90;;;9.77;100.00;102944.94;5112906;28;20113;-65
2022/11/12 04:36:40;;;;;;;98.03;32.80;;;9.60;99.90;;;9.49;100.00;102940.50;5112673;28;20059;-65
2022/11/12 04:39:28;;;;;;;66.32;29.90;;;9.30;99.90;;;9.35;100.00;102922.41;5112504;28;20408;-65
2022/11/12 04:45:22;;;;;;;124.93;31.27;;;9.00;99.90;;;9.00;100.00;102939.69;5116189;28;20499;-64
2022/11/12 04:48:10;;;;;;;181.95;31.58;;;8.90;99.90;;;8.71;100.00;102901.69;5116281;28;20074;-65
2022/11/12 04:50:59;;;;;;;134.23;33.58;;;8.70;99.90;;;9.04;100.00;102921.34;5116412;28;20436;-64
2022/11/12 04:53:46;;;;;;;221.57;35.17;;;8.80;99.90;;;9.03;100.00;102918.66;5116251;28;20150;-66
2022/11/12 04:56:35;;;;;;;102.55;31.23;;;8.80;99.90;;;9.04;100.00;102888.75;5116145;28;20080;-65
2022/11/12 04:59:22;;;;;;;146.73;33.30;;;8.90;99.90;;;9.03;100.00;102910.75;5115944;28;20058;-65
2022/11/12 05:02:08;;;;;;;97.38;30.67;;;8.90;99.90;;;9.28;100.00;102912.47;5115802;28;20133;-65
2022/11/12 05:04:55;;;;;;;116.97;32.95;;;9.00;99.90;;;9.12;100.00;102892.56;5115684;28;20051;-65
2022/11/12 05:07:42;;;;;;;268.85;39.05;;;9.00;99.90;;;9.13;100.00;102896.09;5115750;28;20432;-65
2022/11/12 05:10:30;;;;;;;89.22;33.75;;;9.00;99.90;;;9.12;100.00;102899.59;5115661;28;20051;-65
2022/11/12 05:13:19;;;;;;;213.68;35.55;;;8.90;99.90;;;8.88;100.00;102891.75;5115602;28;20619;-65
2022/11/12 05:16:06;;;;;;;142.05;37.17;;;8.80;99.90;;;8.53;100.00;102834.19;5115552;28;20417;-64
2022/11/12 05:18:52;;;;;;;169.70;35.85;;;8.70;99.90;;;8.80;100.00;102896.75;5115524;28;20042;-65
2022/11/12 05:24:44;;;;;;;269.75;40.63;;;8.80;99.90;;;7.93;100.00;102728.34;5115647;28;20546;-67
2022/11/12 05:27:31;;;;;;;280.02;42.80;;;8.70;99.90;;;8.71;100.00;102903.44;5115648;28;20050;-65
2022/11/12 05:30:20;;;;;;;143.52;39.10;;;8.60;99.90;;;8.76;100.00;102913.31;5115281;28;20100;-65
2022/11/12 05:33:07;;;;;;;190.55;41.58;;;8.50;99.90;;;8.85;100.00;102892.53;5115541;28;20523;-66
2022/11/12 05:35:56;;;;;;;181.13;40.80;;;8.70;99.90;;;8.55;100.00;102893.19;5115347;28;20058;-66
2022/11/12 05:38:43;;;;;;;175.05;40.60;;;8.60;99.90;;;8.92;100.00;102904.19;5115170;28;20050;-65
2022/11/12 05:41:30;;;;;;;205.18;43.55;;;8.60;99.90;;;8.99;100.00;102900.91;5115019;28;20055;-65
2022/11/12 05:44:37;;;;;;;278.58;46.13;;;8.70;99.90;;;8.94;100.00;102911.31;5115188;28;20421;-66
2022/11/12 05:47:25;;;;;;;257.13;44.65;;;8.80;99.90;;;9.06;100.00;102905.53;5114970;28;20129;-65
2022/11/12 05:50:12;;;;;;;311.38;50.25;;;8.80;99.90;;;9.00;100.00;102906.25;5114965;28;20101;-65
2022/11/12 05:52:59;;;;;;;214.10;44.25;;;8.80;99.90;;;9.10;100.00;102904.81;5114837;28;20049;-65
2022/11/12 05:55:46;;;;;;;232.55;43.42;;;8.80;99.90;;;9.04;100.00;102897.59;5115224;28;20062;-66
2022/11/12 05:58:33;;;;;;;211.75;43.63;;;8.80;99.90;;;9.09;100.00;102905.66;5114748;28;20070;-65
2022/11/12 06:01:20;;;;;;;219.38;42.90;;;8.80;99.90;;;8.98;100.00;102907.06;5114811;28;20055;-65
2022/11/12 06:04:08;;;;;;;166.35;39.92;;;8.70;99.90;;;8.93;100.00;102898.97;5114862;28;20051;-65
2022/11/12 06:06:55;;;;;;;227.10;43.33;;;8.80;99.90;;;8.92;100.00;102904.19;5114653;28;20562;-65
2022/11/12 06:09:42;;;;;;;264.77;43.35;;;8.70;99.90;;;8.75;100.00;102908.00;5115008;28;20074;-65
2022/11/12 06:12:30;;;;;;;194.93;42.08;;;8.60;99.90;;;8.60;100.00;102878.41;5114698;28;20054;-65
2022/11/12 06:15:19;;;;;;;228.35;44.47;;;8.50;99.90;;;8.63;100.00;102902.28;5114882;28;20190;-65
2022/11/12 06:18:06;;;;;;;180.00;43.85;;;8.40;99.90;;;8.36;100.00;102865.25;5114411;28;20050;-65
2022/11/12 06:24:00;;;;;;;120.28;40.85;;;8.40;99.90;;;8.79;100.00;102901.94;5114484;28;20518;-65
2022/11/12 06:26:48;;;;;;;126.03;41.25;;;8.50;99.90;;;8.49;100.00;102869.22;5114269;28;20046;-65
2022/11/12 06:29:35;;;;;;;115.95;40.42;;;8.50;99.90;;;8.54;100.00;102888.72;5114403;28;20108;-64
2022/11/12 06:32:22;;;;;;;95.10;39.15;;;8.40;99.90;;;8.65;100.00;102921.69;5114241;28;20070;-65
2022/11/12 06:35:09;;;;;;;55.53;36.95;;;8.40;99.90;;;8.70;100.00;102914.81;5113739;28;20113;-64
2022/11/12 06:37:57;;;;;;;97.32;40.00;;;8.40;99.90;;;8.63;100.00;102915.47;5114163;28;20416;-64
2022/11/12 06:40:44;;;;;;;53.08;36.00;;;8.40;99.90;;;8.55;100.00;102894.09;5113610;28;20128;-64
2022/11/12 06:43:33;;;;;;;69.05;37.58;;;8.40;99.90;;;8.69;100.00;102913.91;5113634;28;20416;-65
2022/11/12 06:46:20;;;;;;;78.97;36.33;;;8.40;99.90;;;8.58;100.00;102917.00;5113805;28;20050;-64
2022/11/12 06:49:07;;;;;;;78.72;35.17;;;8.30;99.90;;;8.66;100.00;102915.56;5113756;28;20043;-65
2022/11/12 06:51:53;;;;;;;55.25;35.15;;;8.40;99.90;;;8.71;100.00;102904.31;5113707;28;20139;-64
2022/11/12 06:54:42;;;;;;;71.75;35.78;;;8.50;99.90;;;8.42;100.00;102860.16;5113474;28;20062;-65
2022/11/12 06:57:29;;;;;;;72.07;33.78;;;8.50;99.90;;;8.73;100.00;102930.78;5113074;28;20039;-65
2022/11/12 07:00:17;;;;;;;55.20;33.47;;;8.50;99.90;;;8.50;100.00;102897.38;5113509;28;20401;-65
2022/11/12 07:03:07;;;;;;;46.58;31.73;;;8.40;99.90;;;8.79;100.00;102928.34;5113267;28;20054;-65
2022/11/12 07:05:54;;;;;;;42.15;31.15;;;8.50;99.90;;;8.91;100.00;102923.50;5113154;28;20101;-64
2022/11/12 07:08:42;;;;;;;41.20;31.55;;;8.70;99.90;;;8.65;100.00;102893.53;5113481;28;20063;-65
2022/11/12 07:11:30;;;;;;;40.55;29.92;;;8.60;99.90;;;9.04;100.00;102939.81;5113146;28;20042;-65
2022/11/12 07:14:17;;;;;;;39.17;29.42;;;8.70;99.90;;;9.05;100.00;102935.44;5113167;28;20164;-64
2022/11/12 07:17:04;;;;;;;35.70;27.50;;;8.90;99.90;;;9.14;100.00;102943.69;5113517;28;20058;-65
2022/11/12 07:19:52;;;;;;;34.22;27.13;;;8.90;99.90;;;9.27;100.00;102942.38;5113230;28;20050;-64
2022/11/12 07:22:39;;;;;;;34.10;26.75;;;9.00;99.90;;;9.17;100.00;102929.69;5112999;28;20053;-64
2022/11/12 07:25:26;;;;;;;34.80;27.02;;;9.00;99.90;;;9.17;100.00;102945.53;5113137;28;20054;-64
2022/11/12 07:28:14;;;;;;;33.08;25.30;;;9.00;99.90;;;9.01;100.00;102909.78;5112864;28;20096;-64
2022/11/12 07:31:03;;;;;;;29.50;24.27;;;9.00;99.90;;;9.25;100.00;102942.31;5113033;28;20176;-64
2022/11/12 07:33:50;;;;;;;28.65;23.48;;;9.00;99.90;;;9.35;100.00;102914.47;5112948;28;20055;-65
2022/11/12 07:36:37;;;;;;;31.13;24.95;;;9.20;99.90;;;9.58;100.00;102922.28;5112432;28;20124;-64
2022/11/12 07:39:24;;;;;;;27.55;23.48;;;9.40;99.90;;;9.82;100.00;102944.22;5112913;28;20219;-64
2022/11/12 07:42:10;;;;;;;27.15;22.35;;;9.50;99.90;;;9.77;100.00;102945.84;5112908;28;20404;-64
2022/11/12 07:44:59;;;;;;;27.10;21.80;;;9.50;99.90;;;9.78;100.00;102936.16;5113045;28;20165;-64
2022/11/12 07:47:45;;;;;;;26.10;21.13;;;9.60;99.90;;;9.63;100.00;102889.00;5113110;28;20055;-64
2022/11/12 07:50:32;;;;;;;31.35;21.02;;;9.70;99.90;;;9.95;100.00;102946.41;5113190;28;20096;-65
2022/11/12 07:53:19;;;;;;;28.58;20.75;;;9.70;99.90;;;9.86;99.63;102938.19;5112828;28;20050;-64
2022/11/12 07:56:07;;;;;;;27.88;19.88;;;9.70;99.90;;;10.10;99.84;102947.78;5112491;28;20123;-65
2022/11/12 07:58:54;;;;;;;25.98;19.55;;;9.80;99.90;;;10.19;98.97;102940.13;5112837;28;20513;-64
2022/11/12 08:01:43;;;;;;;25.08;20.20;;;9.90;99.90;;;10.39;97.91;102941.63;5112581;28;20051;-64
2022/11/12 08:04:30;;;;;;;23.92;21.00;;;10.10;99.90;;;10.31;97.28;102937.84;5112766;28;20413;-64
2022/11/12 08:07:17;;;;;;;24.40;21.58;;;10.10;99.90;;;10.08;97.16;102875.41;5112982;28;20587;-64
2022/11/12 08:10:05;;;;;;;29.92;24.65;;;10.20;99.90;;;10.62;96.75;102951.13;5112499;28;20177;-63
2022/11/12 08:12:52;;;;;;;27.98;23.52;;;10.30;99.90;;;10.70;96.11;102957.53;5112671;28;20050;-64
2022/11/12 08:15:39;;;;;;;24.35;21.67;;;10.40;99.90;;;11.10;96.61;102964.81;5112887;28;20134;-64
2022/11/12 08:18:28;;;;;;;27.88;22.33;;;10.70;99.90;;;11.22;94.26;102963.41;5115987;28;20061;-65
2022/11/12 08:21:18;;;;;;;24.63;21.52;;;10.90;99.90;;;9.72;93.66;102745.69;5116467;28;20051;-64
2022/11/12 08:24:05;;;;;;;25.13;21.83;;;11.00;99.90;;;11.62;93.58;102936.16;5116500;28;20408;-64
2022/11/12 08:26:52;;;;;;;25.77;20.67;;;11.40;99.90;;;11.88;91.33;102969.53;5115898;28;20138;-63
2022/11/12 08:29:39;;;;;;;27.10;19.65;;;11.60;99.90;;;11.70;89.92;102918.72;5116254;28;20065;-64
2022/11/12 08:32:26;;;;;;;22.17;19.08;;;11.70;99.90;;;11.09;88.91;102809.44;5116268;28;20046;-63
2022/11/12 08:35:15;;;;;;;20.88;17.73;;;11.80;99.90;;;12.01;89.22;102971.63;5116239;28;20062;-64
2022/11/12 08:38:05;;;;;;;21.50;17.63;;;11.70;99.90;;;12.06;89.77;102966.44;5116453;28;20148;-64
2022/11/12 08:40:52;;;;;;;20.92;17.77;;;11.70;99.90;;;12.18;89.17;102956.06;5116372;28;20058;-64
2022/11/12 08:43:40;;;;;;;21.63;17.42;;;11.90;99.90;;;12.37;88.10;102972.44;5115902;28;20120;-63
2022/11/12 08:46:28;;;;;;;24.25;17.70;;;12.10;99.90;;;12.79;87.90;102966.25;5115790;28;20519;-64
2022/11/12 08:49:15;;;;;;;18.98;16.90;;;12.40;99.90;;;12.98;86.38;102958.69;5115892;28;20188;-64
2022/11/12 08:52:06;;;;;;;19.52;16.48;;;12.60;99.90;;;13.19;85.80;102939.59;5116051;28;20136;-63
2022/11/12 08:54:53;;;;;;;20.55;17.13;;;12.90;99.90;;;12.98;85.43;102963.09;5115956;28;20147;-64
2022/11/12 08:57:44;;;;;;;22.38;16.80;;;12.80;99.90;;;12.41;86.08;102876.09;5115983;28;20168;-64
2022/11/12 09:00:34;;;;;;;19.23;16.88;;;12.60;99.90;;;12.84;87.21;102972.53;5115564;28;20096;-64
2022/11/12 09:03:24;;;;;;;19.05;16.42;;;12.50;99.90;;;12.94;86.72;102974.53;5115552;28;20051;-64
2022/11/12 09:06:10;;;;;;;22.13;16.90;;;12.70;99.90;;;13.61;85.05;102982.03;5115673;28;20054;-64
2022/11/12 09:08:59;;;;;;;21.67;16.75;;;13.20;99.90;;;13.46;85.73;102979.97;5115716;28;20661;-64
2022/11/12 09:11:46;;;;;;;30.38;16.25;;;13.20;99.90;;;13.47;85.58;102985.31;5115371;28;20050;-64
2022/11/12 09:14:33;;;;;;;20.25;16.55;;;13.20;99.90;;;13.64;85.83;102987.38;5115600;28;20046;-64
2022/11/12 09:17:19;;;;;;;18.63;16.63;;;13.20;99.90;;;13.20;85.56;102974.19;5115236;28;20067;-64
2022/11/12 09:20:07;;;;;;;20.38;15.57;;;13.00;99.90;;;13.17;85.81;102973.22;5115629;28;20469;-64
2022/11/12 09:22:59;;;;;;;20.00;16.30;;;13.00;99.90;;;11.61;85.15;102712.59;5115130;28;20070;-64
2022/11/12 09:25:48;;;;;;;20.42;15.85;;;12.90;99.90;;;13.39;85.28;102960.34;5115254;28;20054;-64
2022/11/12 09:28:35;;;;;;;22.77;16.52;;;13.10;99.90;;;13.64;84.71;102974.06;5114882;28;20172;-64
2022/11/12 09:31:24;;;;;;;18.08;15.70;;;13.30;99.90;;;14.09;82.94;102973.03;5115185;28;20051;-64
2022/11/12 09:34:11;;;;;;;21.35;16.45;;;13.70;99.90;;;14.21;83.13;102951.91;5115438;28;20136;-64
2022/11/12 09:36:58;;;;;;;19.98;16.13;;;13.90;99.90;;;14.50;80.63;102978.09;5115163;28;20058;-64
2022/11/12 09:39:45;;;;;;;18.90;16.15;;;14.20;99.90;;;14.56;80.17;102980.81;5114983;28;20073;-64
2022/11/12 09:42:36;;;;;;;20.05;16.95;;;14.20;99.90;;;14.78;80.60;102964.25;5114647;28;20039;-64
2022/11/12 09:45:30;;;;;;;19.50;16.50;;;14.40;99.90;;;14.80;79.51;102960.72;5114845;28;20124;-83
2022/11/12 09:48:23;;;;;;;20.73;16.15;;;14.60;99.90;;;15.67;78.27;102970.53;5115720;28;20097;-82
2022/11/12 09:51:28;;;;;;;19.00;15.88;;;15.40;99.90;;;15.63;75.26;102942.03;5115582;28;20146;-84
2022/11/12 09:54:24;;;;;;;16.90;15.18;;;15.80;99.90;;;15.99;74.21;102964.53;5116806;28;20055;-83
2022/11/12 09:57:12;;;;;;;15.82;14.20;;;15.90;99.90;;;15.60;73.78;102923.34;5117533;28;20124;-83
2022/11/12 10:00:02;;;;;;;17.67;15.45;;;15.90;99.90;;;16.14;73.40;103018.03;5115847;28;20116;-83
2022/11/12 10:02:56;;;;;;;20.52;16.40;;;16.00;99.90;;;15.50;75.84;102973.06;5115536;28;20136;-83
2022/11/12 10:05:49;;;;;;;20.50;14.40;;;15.40;99.90;;;15.59;75.70;102982.91;5115237;28;20112;-82
2022/11/12 10:08:47;;;;;;;17.63;15.48;;;15.30;99.90;;;15.94;74.20;102984.09;5115171;28;20055;-82
2022/11/12 10:19:28;;;;;;;17.10;15.00;;;15.80;99.90;;;16.28;72.72;102995.00;5115307;28;20132;-82
2022/11/12 10:22:37;;;;;;;20.85;15.85;;;15.90;99.90;;;15.50;71.10;102748.09;5114710;28;20047;-82
2022/11/12 10:25:26;;;;;;;17.77;14.18;;;16.60;99.90;;;16.90;70.95;102928.50;5114831;28;20050;-81
2022/11/12 10:28:29;;;;;;;16.50;13.48;;;17.10;99.90;;;17.72;68.55;102996.44;5115152;28;20051;-82
2022/11/12 10:31:24;;;;;;;14.65;13.15;;;17.50;99.90;;;18.39;66.62;103010.63;5114646;28;20054;-81
2022/11/12 10:34:17;;;;;;;16.02;13.60;;;18.10;99.90;;;16.81;63.72;102719.97;5114987;28;20526;-81
2022/11/12 10:37:10;;;;;;;14.45;12.48;;;18.60;99.90;;;18.58;61.61;102995.44;5115159;28;20066;-82
2022/11/12 10:39:58;;;;;;;14.40;12.88;;;18.60;99.90;;;18.36;63.36;102994.56;5114309;28;20038;-82
2022/11/12 10:42:58;;;;;;;16.92;14.05;;;18.30;99.90;;;18.62;62.40;103019.53;5114712;28;20047;-81
2022/11/12 10:45:47;;;;;;;15.43;13.32;;;18.40;99.90;;;18.36;62.18;102983.84;5114852;28;20047;-81
2022/11/12 10:48:36;;;;;;;16.25;12.75;;;18.40;99.90;;;18.85;62.12;103014.13;5114762;28;20058;-81
2022/11/12 10:51:31;;;;;;;14.13;12.63;;;18.60;99.90;;;18.73;61.59;102993.59;5114841;28;20047;-81
2022/11/12 10:54:30;;;;;;;14.07;11.32;;;18.60;99.90;;;18.59;61.45;103027.63;5114689;28;20114;-82
2022/11/12 10:57:26;;;;;;;13.07;10.73;;;18.40;99.90;;;17.83;62.75;103002.69;5114673;28;20054;-81
2022/11/12 11:00:22;;;;;;;10.88;9.75;;;17.70;99.90;;;17.27;63.63;102998.09;5114684;28;20566;-82
2022/11/12 11:03:21;;;;;;;13.95;11.00;;;17.10;99.90;;;15.79;64.71;102718.00;5114617;28;20054;-81
2022/11/12 11:06:25;;;;;;;13.25;11.38;;;17.00;99.90;;;16.88;65.74;103004.22;5114497;28;20077;-81
2022/11/12 11:09:20;;;;;;;12.20;10.90;;;16.60;99.90;;;17.02;66.64;102982.03;5114490;28;20073;-81
2022/11/12 11:12:26;;;;;;;12.43;10.57;;;16.70;99.90;;;16.98;67.69;103012.31;5114209;28;20515;-81
2022/11/12 11:15:23;;;;;;;13.23;11.38;;;16.70;99.90;;;16.45;69.57;102988.88;5114434;28;20062;-81
2022/11/12 11:18:14;;;;;;;12.32;10.82;;;16.20;99.90;;;15.59;69.36;102886.84;5113870;28;20046;-81
2022/11/12 11:21:18;;;;;;;12.35;9.57;;;15.90;99.90;;;15.89;67.71;102860.38;5114399;28;20092;-80
2022/11/12 11:24:26;;;;;;;12.05;10.45;;;16.20;99.90;;;16.70;67.36;102948.06;5115086;28;20515;-82
2022/11/12 11:27:30;;;;;;;14.10;10.13;;;16.50;99.90;;;16.95;66.03;102974.88;5117107;28;20051;-81
2022/11/12 11:30:19;;;;;;;11.02;9.93;;;16.70;99.90;;;17.04;66.39;102979.34;5116308;28;20073;-82
2022/11/12 11:33:29;;;;;;;11.85;9.98;;;16.70;99.90;;;16.47;66.73;102931.00;5115855;28;20120;-83
2022/11/12 11:36:28;;;;;;;9.07;8.07;;;16.50;99.90;;;16.41;66.57;102963.03;5114663;28;20138;-82
2022/11/12 11:39:26;;;;;;;10.85;9.05;;;16.20;99.90;;;16.07;66.81;102903.19;5114640;28;20523;-81
2022/11/12 11:42:48;;;;;;;11.38;8.70;;;16.10;99.90;;;16.12;68.23;102856.06;5115783;28;20060;-81
2022/11/12 11:45:56;;;;;;;14.00;9.15;;;16.10;99.90;;;16.59;68.72;102931.97;5119132;28;20055;-81
2022/11/12 11:49:01;;;;;;;8.98;8.10;;;16.30;99.90;;;16.25;67.11;102844.53;5118388;28;20054;-82
2022/11/12 11:51:58;;;;;;;9.52;7.80;;;16.40;99.90;;;16.25;66.36;102857.88;5119011;28;20054;-81
2022/11/12 11:55:00;;;;;;;8.93;7.35;;;16.30;99.90;;;16.51;65.74;102901.63;5121421;28;20054;-81
2022/11/12 11:58:05;;;;;;;8.20;6.82;;;16.30;99.90;;;16.76;65.36;102900.81;5121671;28;20392;-81
2022/11/12 12:01:07;;;;;;;8.68;6.70;;;16.40;99.90;;;16.60;64.93;102885.66;5119818;28;20408;-81
2022/11/12 12:04:37;;;;;;;8.05;7.25;;;16.60;99.90;;;17.03;65.74;102892.00;5118272;28;20143;-81